sensor_id;sensor_type;location;lat;lon;timestamp;pressure;altitude;pressure_sealevel;temperature;humidity
65384;BME280;51986;52.788;41.368;2023-03-01T00:01:17;98345.53;;;-1.09;59.37
65384;BME280;51986;52.788;41.368;2023-03-01T00:03:44;98339.28;;;-1.23;59.38
65384;BME280;51986;52.788;41.368;2023-03-01T00:06:12;98327.50;;;-1.05;59.58
65384;BME280;51986;52.788;41.368;2023-03-01T00:08:39;98321.50;;;-0.90;58.83
65384;BME280;51986;52.788;41.368;2023-03-01T00:11:13;98338.63;;;-0.85;58.27
65384;BME280;51986;52.788;41.368;2023-03-01T00:13:41;98336.59;;;-1.11;59.26
65384;BME280;51986;52.788;41.368;2023-03-01T00:16:15;98339.84;;;-1.14;60.10
65384;BME280;51986;52.788;41.368;2023-03-01T00:18:43;98345.16;;;-1.07;59.62
65384;BME280;51986;52.788;41.368;2023-03-01T00:21:10;98320.25;;;-1.15;59.60
65384;BME280;51986;52.788;41.368;2023-03-01T00:23:38;98322.56;;;-1.10;60.32
65384;BME280;51986;52.788;41.368;2023-03-01T00:26:07;98314.31;;;-1.32;60.60
65384;BME280;51986;52.788;41.368;2023-03-01T00:28:36;98323.47;;;-1.03;59.87
65384;BME280;51986;52.788;41.368;2023-03-01T00:31:12;98324.00;;;-1.29;61.37
65384;BME280;51986;52.788;41.368;2023-03-01T00:33:39;98307.78;;;-1.10;60.15
65384;BME280;51986;52.788;41.368;2023-03-01T00:36:07;98283.63;;;-1.33;60.70
65384;BME280;51986;52.788;41.368;2023-03-01T00:38:39;98290.19;;;-1.20;61.07
65384;BME280;51986;52.788;41.368;2023-03-01T00:41:08;98305.84;;;-0.97;60.60
65384;BME280;51986;52.788;41.368;2023-03-01T00:43:36;98315.78;;;-0.99;60.59
65384;BME280;51986;52.788;41.368;2023-03-01T00:46:12;98286.47;;;-1.03;60.69
65384;BME280;51986;52.788;41.368;2023-03-01T00:48:40;98283.13;;;-1.04;61.17
65384;BME280;51986;52.788;41.368;2023-03-01T00:51:34;98291.94;;;-0.89;61.37
65384;BME280;51986;52.788;41.368;2023-03-01T00:54:02;98295.59;;;-1.09;61.71
65384;BME280;51986;52.788;41.368;2023-03-01T00:56:30;98287.47;;;-0.92;61.20
65384;BME280;51986;52.788;41.368;2023-03-01T00:58:58;98290.97;;;-1.00;60.62
65384;BME280;51986;52.788;41.368;2023-03-01T05:57:31;98363.28;;;-0.17;46.60
65384;BME280;51986;52.788;41.368;2023-03-01T05:59:58;98361.06;;;0.23;45.76
65384;BME280;51986;52.788;41.368;2023-03-01T06:02:25;98375.34;;;0.14;45.69
65384;BME280;51986;52.788;41.368;2023-03-01T06:04:55;98385.91;;;0.24;45.82
65384;BME280;51986;52.788;41.368;2023-03-01T06:07:22;98363.13;;;0.14;45.23
65384;BME280;51986;52.788;41.368;2023-03-01T06:09:49;98382.59;;;-0.15;46.09
65384;BME280;51986;52.788;41.368;2023-03-01T06:12:16;98377.88;;;-0.29;46.22
65384;BME280;51986;52.788;41.368;2023-03-01T06:14:43;98373.25;;;-0.19;45.56
65384;BME280;51986;52.788;41.368;2023-03-01T06:17:11;98381.97;;;-0.47;46.73
65384;BME280;51986;52.788;41.368;2023-03-01T06:19:38;98372.28;;;-0.11;45.19
65384;BME280;51986;52.788;41.368;2023-03-01T06:22:06;98397.97;;;0.17;44.71
65384;BME280;51986;52.788;41.368;2023-03-01T06:24:33;98385.72;;;0.37;45.04
65384;BME280;51986;52.788;41.368;2023-03-01T06:27:00;98380.53;;;0.60;44.17
65384;BME280;51986;52.788;41.368;2023-03-01T06:29:27;98384.69;;;0.64;44.05
65384;BME280;51986;52.788;41.368;2023-03-01T06:31:56;98395.13;;;0.68;44.33
65384;BME280;51986;52.788;41.368;2023-03-01T06:34:23;98386.66;;;0.48;43.27
65384;BME280;51986;52.788;41.368;2023-03-01T06:36:55;98398.13;;;0.93;42.78
65384;BME280;51986;52.788;41.368;2023-03-01T06:39:22;98380.66;;;0.90;41.64
65384;BME280;51986;52.788;41.368;2023-03-01T06:41:49;98407.16;;;1.02;41.99
65384;BME280;51986;52.788;41.368;2023-03-01T06:44:16;98393.66;;;0.93;42.31
65384;BME280;51986;52.788;41.368;2023-03-01T06:46:43;98396.69;;;0.49;43.40
65384;BME280;51986;52.788;41.368;2023-03-01T06:49:10;98397.25;;;0.39;43.01
65384;BME280;51986;52.788;41.368;2023-03-01T06:51:37;98387.00;;;0.46;42.26
65384;BME280;51986;52.788;41.368;2023-03-01T06:54:04;98388.31;;;0.60;41.69
65384;BME280;51986;52.788;41.368;2023-03-01T06:56:32;98363.22;;;0.90;42.16
65384;BME280;51986;52.788;41.368;2023-03-01T06:58:59;98379.66;;;1.24;40.68
65384;BME280;51986;52.788;41.368;2023-03-01T07:01:26;98381.69;;;1.38;40.39
65384;BME280;51986;52.788;41.368;2023-03-01T07:03:54;98393.28;;;1.18;40.35
65384;BME280;51986;52.788;41.368;2023-03-01T07:06:21;98396.03;;;1.02;40.55
65384;BME280;51986;52.788;41.368;2023-03-01T07:08:49;98398.13;;;0.93;39.50
65384;BME280;51986;52.788;41.368;2023-03-01T07:11:16;98389.19;;;1.47;38.27
65384;BME280;51986;52.788;41.368;2023-03-01T07:13:43;98391.28;;;1.98;38.11
65384;BME280;51986;52.788;41.368;2023-03-01T07:16:10;98400.75;;;1.19;39.46
65384;BME280;51986;52.788;41.368;2023-03-01T07:18:37;98412.44;;;0.83;39.66
65384;BME280;51986;52.788;41.368;2023-03-01T07:21:06;98411.88;;;1.20;38.88
65384;BME280;51986;52.788;41.368;2023-03-01T07:23:33;98393.47;;;0.56;39.13
65384;BME280;51986;52.788;41.368;2023-03-01T07:26:00;98398.81;;;0.44;39.08
65384;BME280;51986;52.788;41.368;2023-03-01T07:28:27;98403.03;;;0.10;39.56
65384;BME280;51986;52.788;41.368;2023-03-01T07:30:55;98397.88;;;0.10;39.61
65384;BME280;51986;52.788;41.368;2023-03-01T07:33:21;98392.88;;;0.01;39.06
65384;BME280;51986;52.788;41.368;2023-03-01T07:35:55;98406.69;;;0.47;38.49
65384;BME280;51986;52.788;41.368;2023-03-01T07:38:23;98408.13;;;0.25;38.31
65384;BME280;51986;52.788;41.368;2023-03-01T07:40:50;98402.16;;;0.90;37.53
65384;BME280;51986;52.788;41.368;2023-03-01T07:43:17;98408.34;;;1.08;36.29
65384;BME280;51986;52.788;41.368;2023-03-01T07:45:44;98434.84;;;1.18;36.91
65384;BME280;51986;52.788;41.368;2023-03-01T07:48:11;98388.50;;;0.24;38.33
65384;BME280;51986;52.788;41.368;2023-03-01T07:50:37;98404.72;;;0.21;37.23
65384;BME280;51986;52.788;41.368;2023-03-01T07:53:04;98399.16;;;0.88;36.50
65384;BME280;51986;52.788;41.368;2023-03-01T07:55:31;98416.53;;;0.84;36.73
65384;BME280;51986;52.788;41.368;2023-03-01T07:57:58;98417.53;;;1.02;36.93
65384;BME280;51986;52.788;41.368;2023-03-01T08:00:25;98393.22;;;1.71;36.56
65384;BME280;51986;52.788;41.368;2023-03-01T08:02:52;98391.28;;;1.64;35.78
65384;BME280;51986;52.788;41.368;2023-03-01T08:05:19;98404.78;;;1.47;36.23
65384;BME280;51986;52.788;41.368;2023-03-01T08:07:46;98398.53;;;1.48;35.46
65384;BME280;51986;52.788;41.368;2023-03-01T08:10:13;98391.72;;;1.13;35.00
65384;BME280;51986;52.788;41.368;2023-03-01T08:12:41;98411.63;;;1.28;35.64
65384;BME280;51986;52.788;41.368;2023-03-01T08:15:08;98401.69;;;1.64;36.08
65384;BME280;51986;52.788;41.368;2023-03-01T08:17:35;98403.03;;;1.84;35.02
65384;BME280;51986;52.788;41.368;2023-03-01T08:20:03;98396.72;;;1.25;35.58
65384;BME280;51986;52.788;41.368;2023-03-01T08:22:31;98396.72;;;0.99;36.56
65384;BME280;51986;52.788;41.368;2023-03-01T08:24:58;98409.03;;;1.28;36.47
65384;BME280;51986;52.788;41.368;2023-03-01T08:27:25;98393.13;;;0.80;35.88
65384;BME280;51986;52.788;41.368;2023-03-01T08:29:52;98415.09;;;0.87;36.42
65384;BME280;51986;52.788;41.368;2023-03-01T08:32:19;98417.84;;;0.74;36.39
65384;BME280;51986;52.788;41.368;2023-03-01T08:34:47;98409.56;;;0.42;36.18
65384;BME280;51986;52.788;41.368;2023-03-01T08:37:15;98416.59;;;0.88;35.55
65384;BME280;51986;52.788;41.368;2023-03-01T08:39:41;98391.19;;;1.00;34.91
65384;BME280;51986;52.788;41.368;2023-03-01T08:42:08;98422.75;;;0.79;35.68
65384;BME280;51986;52.788;41.368;2023-03-01T08:44:35;98415.34;;;1.31;35.41
65384;BME280;51986;52.788;41.368;2023-03-01T08:47:03;98392.94;;;1.19;35.50
65384;BME280;51986;52.788;41.368;2023-03-01T08:49:29;98422.25;;;1.46;35.55
65384;BME280;51986;52.788;41.368;2023-03-01T08:51:57;98387.72;;;1.46;34.57
65384;BME280;51986;52.788;41.368;2023-03-01T08:54:24;98416.97;;;1.69;34.59
65384;BME280;51986;52.788;41.368;2023-03-01T08:56:54;98411.72;;;1.09;34.50
65384;BME280;51986;52.788;41.368;2023-03-01T08:59:21;98405.47;;;1.14;34.82
65384;BME280;51986;52.788;41.368;2023-03-01T09:01:48;98406.09;;;0.80;34.98
65384;BME280;51986;52.788;41.368;2023-03-01T09:04:15;98428.72;;;1.29;35.91
65384;BME280;51986;52.788;41.368;2023-03-01T09:06:42;98415.59;;;1.49;36.27
65384;BME280;51986;52.788;41.368;2023-03-01T09:09:19;98390.53;;;1.33;35.67
65384;BME280;51986;52.788;41.368;2023-03-01T09:11:46;98402.78;;;1.06;35.81
65384;BME280;51986;52.788;41.368;2023-03-01T09:14:14;98412.22;;;1.45;36.08
65384;BME280;51986;52.788;41.368;2023-03-01T09:16:42;98424.53;;;0.98;35.77
65384;BME280;51986;52.788;41.368;2023-03-01T09:19:09;98426.28;;;0.68;36.52
65384;BME280;51986;52.788;41.368;2023-03-01T09:21:37;98395.63;;;1.26;35.72
65384;BME280;51986;52.788;41.368;2023-03-01T09:24:12;98414.56;;;1.27;36.64
65384;BME280;51986;52.788;41.368;2023-03-01T09:26:43;98415.31;;;1.54;36.16
65384;BME280;51986;52.788;41.368;2023-03-01T09:29:10;98427.72;;;1.38;35.52
65384;BME280;51986;52.788;41.368;2023-03-01T09:31:37;98411.16;;;1.23;35.87
65384;BME280;51986;52.788;41.368;2023-03-01T09:34:07;98414.97;;;0.79;35.57
65384;BME280;51986;52.788;41.368;2023-03-01T09:36:36;98430.09;;;1.50;36.26
65384;BME280;51986;52.788;41.368;2023-03-01T09:39:04;98417.00;;;1.16;35.84
65384;BME280;51986;52.788;41.368;2023-03-01T09:47:05;98419.06;;;1.90;35.17
65384;BME280;51986;52.788;41.368;2023-03-01T09:49:39;98414.81;;;1.45;34.99
65384;BME280;51986;52.788;41.368;2023-03-01T09:54:38;98410.97;;;1.95;35.30
65384;BME280;51986;52.788;41.368;2023-03-01T09:57:36;98408.22;;;1.84;35.34
65384;BME280;51986;52.788;41.368;2023-03-01T10:03:12;98411.63;;;1.28;35.89
65384;BME280;51986;52.788;41.368;2023-03-01T10:05:56;98397.78;;;1.47;35.62
65384;BME280;51986;52.788;41.368;2023-03-01T10:08:54;98417.22;;;1.30;35.80
65384;BME280;51986;52.788;41.368;2023-03-01T10:11:31;98401.81;;;0.92;36.31
65384;BME280;51986;52.788;41.368;2023-03-01T10:17:20;98405.38;;;0.84;35.66
65384;BME280;51986;52.788;41.368;2023-03-01T10:19:50;98411.31;;;1.33;36.19
65384;BME280;51986;52.788;41.368;2023-03-01T10:22:31;98427.09;;;0.95;36.60
65384;BME280;51986;52.788;41.368;2023-03-01T10:25:02;98423.78;;;0.98;37.06
65384;BME280;51986;52.788;41.368;2023-03-01T10:27:42;98412.94;;;1.45;36.50
65384;BME280;51986;52.788;41.368;2023-03-01T10:30:19;98419.31;;;0.72;37.62
65384;BME280;51986;52.788;41.368;2023-03-01T10:32:50;98419.75;;;1.00;38.13
65384;BME280;51986;52.788;41.368;2023-03-01T10:35:36;98420.59;;;1.08;37.82
65384;BME280;51986;52.788;41.368;2023-03-01T10:38:11;98436.09;;;1.01;37.40
65384;BME280;51986;52.788;41.368;2023-03-01T10:41:04;98438.09;;;1.11;36.17
65384;BME280;51986;52.788;41.368;2023-03-01T10:43:44;98432.16;;;0.88;36.72
65384;BME280;51986;52.788;41.368;2023-03-01T10:46:30;98435.59;;;1.18;36.96
65384;BME280;51986;52.788;41.368;2023-03-01T10:51:42;98453.16;;;0.79;38.15
65384;BME280;51986;52.788;41.368;2023-03-01T10:56:52;98432.19;;;0.45;37.46
65384;BME280;51986;52.788;41.368;2023-03-01T10:59:35;98433.03;;;0.49;37.47
65384;BME280;51986;52.788;41.368;2023-03-01T11:02:20;98442.38;;;0.77;36.95
65384;BME280;51986;52.788;41.368;2023-03-01T11:07:51;98434.81;;;1.14;37.18
65384;BME280;51986;52.788;41.368;2023-03-01T11:10:38;98448.25;;;1.20;37.59
65384;BME280;51986;52.788;41.368;2023-03-01T11:13:14;98454.31;;;0.81;37.27
65384;BME280;51986;52.788;41.368;2023-03-01T11:15:43;98458.56;;;1.16;37.65
65384;BME280;51986;52.788;41.368;2023-03-01T11:18:24;98464.22;;;0.99;37.28
65384;BME280;51986;52.788;41.368;2023-03-01T11:21:12;98448.94;;;1.17;38.17
65384;BME280;51986;52.788;41.368;2023-03-01T11:23:40;98433.94;;;0.61;38.37
65384;BME280;51986;52.788;41.368;2023-03-01T11:26:10;98471.50;;;1.13;38.42
65384;BME280;51986;52.788;41.368;2023-03-01T11:28:40;98451.75;;;0.39;37.34
65384;BME280;51986;52.788;41.368;2023-03-01T11:31:11;98446.47;;;0.55;37.18
65384;BME280;51986;52.788;41.368;2023-03-01T11:33:43;98480.22;;;0.78;36.55
65384;BME280;51986;52.788;41.368;2023-03-01T11:36:39;98470.31;;;0.22;37.79
65384;BME280;51986;52.788;41.368;2023-03-01T11:41:41;98480.13;;;-0.07;38.66
65384;BME280;51986;52.788;41.368;2023-03-01T11:44:19;98473.13;;;0.52;38.10
65384;BME280;51986;52.788;41.368;2023-03-01T11:58:03;98506.81;;;0.71;38.30
65384;BME280;51986;52.788;41.368;2023-03-01T12:06:57;98501.59;;;0.91;37.46
65384;BME280;51986;52.788;41.368;2023-03-01T12:09:44;98504.53;;;1.12;37.96
65384;BME280;51986;52.788;41.368;2023-03-01T12:15:57;98519.66;;;1.29;38.20
65384;BME280;51986;52.788;41.368;2023-03-01T12:26:43;98516.66;;;0.62;37.42
65384;BME280;51986;52.788;41.368;2023-03-01T12:29:30;98547.06;;;0.62;38.72
65384;BME280;51986;52.788;41.368;2023-03-01T12:34:50;98543.47;;;-0.24;40.88
65384;BME280;51986;52.788;41.368;2023-03-01T12:37:42;98538.00;;;-0.38;40.64
65384;BME280;51986;52.788;41.368;2023-03-01T12:46:15;98557.25;;;-0.99;41.99
65384;BME280;51986;52.788;41.368;2023-03-01T12:49:08;98543.16;;;-1.01;41.19
65384;BME280;51986;52.788;41.368;2023-03-01T12:51:38;98551.59;;;-1.32;42.14
65384;BME280;51986;52.788;41.368;2023-03-01T12:54:27;98568.63;;;-1.59;42.75
65384;BME280;51986;52.788;41.368;2023-03-01T12:56:57;98551.16;;;-1.50;42.29
65384;BME280;51986;52.788;41.368;2023-03-01T13:02:33;98578.19;;;-1.19;41.42
65384;BME280;51986;52.788;41.368;2023-03-01T13:05:45;98571.69;;;-1.41;41.85
65384;BME280;51986;52.788;41.368;2023-03-01T13:08:32;98555.69;;;-1.31;42.44
65384;BME280;51986;52.788;41.368;2023-03-01T13:11:06;98574.53;;;-1.03;41.15
65384;BME280;51986;52.788;41.368;2023-03-01T13:13:38;98583.78;;;-1.17;42.73
65384;BME280;51986;52.788;41.368;2023-03-01T13:19:09;98590.75;;;-1.06;41.56
65384;BME280;51986;52.788;41.368;2023-03-01T13:21:39;98587.81;;;-1.32;43.34
65384;BME280;51986;52.788;41.368;2023-03-01T13:29:53;98581.97;;;-1.57;43.49
65384;BME280;51986;52.788;41.368;2023-03-01T13:37:41;98603.13;;;-1.80;44.27
65384;BME280;51986;52.788;41.368;2023-03-01T13:42:46;98594.44;;;-1.99;44.69
65384;BME280;51986;52.788;41.368;2023-03-01T13:45:40;98610.06;;;-1.96;44.36
65384;BME280;51986;52.788;41.368;2023-03-01T13:48:16;98599.50;;;-2.28;44.42
65384;BME280;51986;52.788;41.368;2023-03-01T13:50:52;98602.09;;;-2.15;44.18
65384;BME280;51986;52.788;41.368;2023-03-01T13:53:25;98608.41;;;-2.37;45.02
65384;BME280;51986;52.788;41.368;2023-03-01T13:56:03;98628.22;;;-2.41;45.14
65384;BME280;51986;52.788;41.368;2023-03-01T13:58:48;98628.44;;;-2.22;44.15
65384;BME280;51986;52.788;41.368;2023-03-01T14:01:25;98618.09;;;-2.22;43.64
65384;BME280;51986;52.788;41.368;2023-03-01T14:03:53;98614.56;;;-2.17;44.90
65384;BME280;51986;52.788;41.368;2023-03-01T14:06:25;98619.28;;;-2.44;45.52
65384;BME280;51986;52.788;41.368;2023-03-01T14:09:09;98629.09;;;-2.25;44.81
65384;BME280;51986;52.788;41.368;2023-03-01T14:17:30;98639.06;;;-2.48;45.55
65384;BME280;51986;52.788;41.368;2023-03-01T14:22:46;98624.00;;;-2.58;45.43
65384;BME280;51986;52.788;41.368;2023-03-01T14:27:59;98623.13;;;-2.74;45.34
65384;BME280;51986;52.788;41.368;2023-03-01T14:33:05;98638.94;;;-2.97;44.58
65384;BME280;51986;52.788;41.368;2023-03-01T14:35:36;98642.13;;;-2.79;44.83
65384;BME280;51986;52.788;41.368;2023-03-01T14:38:03;98642.06;;;-2.91;44.94
65384;BME280;51986;52.788;41.368;2023-03-01T14:40:33;98646.69;;;-2.97;45.68
65384;BME280;51986;52.788;41.368;2023-03-01T14:43:08;98672.97;;;-2.83;45.15
65384;BME280;51986;52.788;41.368;2023-03-01T14:45:36;98663.09;;;-2.81;45.13
65384;BME280;51986;52.788;41.368;2023-03-01T14:48:05;98649.19;;;-2.88;45.03
65384;BME280;51986;52.788;41.368;2023-03-01T14:50:35;98663.94;;;-2.89;45.18
65384;BME280;51986;52.788;41.368;2023-03-01T14:53:05;98653.31;;;-3.08;45.54
65384;BME280;51986;52.788;41.368;2023-03-01T14:55:35;98671.00;;;-2.98;46.45
65384;BME280;51986;52.788;41.368;2023-03-01T14:58:08;98669.72;;;-2.92;45.42
65384;BME280;51986;52.788;41.368;2023-03-01T15:00:36;98673.06;;;-3.12;46.82
65384;BME280;51986;52.788;41.368;2023-03-01T15:03:36;98664.69;;;-3.09;46.38
65384;BME280;51986;52.788;41.368;2023-03-01T15:06:05;98667.38;;;-2.85;46.05
65384;BME280;51986;52.788;41.368;2023-03-01T15:08:34;98665.66;;;-2.81;46.13
65384;BME280;51986;52.788;41.368;2023-03-01T15:13:40;98696.56;;;-2.72;46.14
65384;BME280;51986;52.788;41.368;2023-03-01T15:16:44;98674.09;;;-2.71;46.12
65384;BME280;51986;52.788;41.368;2023-03-01T15:19:06;98673.19;;;-2.55;45.86
65384;BME280;51986;52.788;41.368;2023-03-01T15:21:36;98674.53;;;-2.69;46.74
65384;BME280;51986;52.788;41.368;2023-03-01T15:24:18;98674.75;;;-2.74;47.15
65384;BME280;51986;52.788;41.368;2023-03-01T15:26:53;98700.78;;;-2.67;46.87
65384;BME280;51986;52.788;41.368;2023-03-01T15:29:25;98683.78;;;-2.89;47.15
65384;BME280;51986;52.788;41.368;2023-03-01T15:32:20;98680.91;;;-2.88;47.12
65384;BME280;51986;52.788;41.368;2023-03-01T15:34:49;98682.81;;;-2.97;47.95
65384;BME280;51986;52.788;41.368;2023-03-01T15:40:26;98678.91;;;-2.82;47.46
65384;BME280;51986;52.788;41.368;2023-03-01T15:46:05;98678.03;;;-3.07;47.74
65384;BME280;51986;52.788;41.368;2023-03-01T15:48:32;98690.75;;;-3.02;47.74
65384;BME280;51986;52.788;41.368;2023-03-01T15:50:59;98691.16;;;-3.00;47.67
65384;BME280;51986;52.788;41.368;2023-03-01T15:53:27;98708.13;;;-3.11;47.04
65384;BME280;51986;52.788;41.368;2023-03-01T15:55:55;98718.88;;;-3.09;47.73
65384;BME280;51986;52.788;41.368;2023-03-01T15:58:25;98718.56;;;-3.08;47.63
65384;BME280;51986;52.788;41.368;2023-03-01T16:00:52;98719.88;;;-3.22;46.75
65384;BME280;51986;52.788;41.368;2023-03-01T16:03:27;98724.00;;;-3.30;47.69
65384;BME280;51986;52.788;41.368;2023-03-01T16:05:54;98713.38;;;-3.28;47.48
65384;BME280;51986;52.788;41.368;2023-03-01T16:08:21;98719.25;;;-3.19;47.25
65384;BME280;51986;52.788;41.368;2023-03-01T16:10:48;98711.34;;;-3.44;47.80
65384;BME280;51986;52.788;41.368;2023-03-01T16:13:16;98723.31;;;-3.39;47.69
65384;BME280;51986;52.788;41.368;2023-03-01T16:15:43;98692.44;;;-3.57;47.23
65384;BME280;51986;52.788;41.368;2023-03-01T16:18:10;98708.34;;;-3.46;48.00
65384;BME280;51986;52.788;41.368;2023-03-01T16:20:37;98719.66;;;-3.38;47.85
65384;BME280;51986;52.788;41.368;2023-03-01T16:23:08;98715.88;;;-3.41;47.82
65384;BME280;51986;52.788;41.368;2023-03-01T16:25:35;98713.78;;;-3.47;47.22
65384;BME280;51986;52.788;41.368;2023-03-01T16:28:03;98719.09;;;-3.44;47.49
65384;BME280;51986;52.788;41.368;2023-03-01T16:30:30;98722.72;;;-3.45;47.66
65384;BME280;51986;52.788;41.368;2023-03-01T16:32:58;98699.75;;;-3.59;47.74
65384;BME280;51986;52.788;41.368;2023-03-01T16:35:25;98719.47;;;-3.63;47.91
65384;BME280;51986;52.788;41.368;2023-03-01T16:37:53;98727.88;;;-3.74;47.79
65384;BME280;51986;52.788;41.368;2023-03-01T16:40:25;98726.34;;;-3.75;48.17
65384;BME280;51986;52.788;41.368;2023-03-01T16:42:54;98722.38;;;-3.64;47.68
65384;BME280;51986;52.788;41.368;2023-03-01T16:45:21;98717.44;;;-3.78;47.53
65384;BME280;51986;52.788;41.368;2023-03-01T16:47:51;98698.69;;;-3.96;47.69
65384;BME280;51986;52.788;41.368;2023-03-01T16:50:22;98731.13;;;-3.95;48.38
65384;BME280;51986;52.788;41.368;2023-03-01T16:52:49;98731.44;;;-3.96;48.26
65384;BME280;51986;52.788;41.368;2023-03-01T16:55:17;98712.97;;;-3.98;48.16
65384;BME280;51986;52.788;41.368;2023-03-01T16:57:44;98725.38;;;-4.00;48.54
65384;BME280;51986;52.788;41.368;2023-03-01T17:00:11;98740.66;;;-3.87;48.32
65384;BME280;51986;52.788;41.368;2023-03-01T17:02:39;98701.53;;;-4.18;48.17
65384;BME280;51986;52.788;41.368;2023-03-01T17:05:08;98750.19;;;-3.87;48.09
65384;BME280;51986;52.788;41.368;2023-03-01T17:07:35;98718.75;;;-4.19;49.10
65384;BME280;51986;52.788;41.368;2023-03-01T17:10:05;98744.22;;;-4.17;49.02
65384;BME280;51986;52.788;41.368;2023-03-01T17:12:34;98710.94;;;-4.31;48.51
65384;BME280;51986;52.788;41.368;2023-03-01T17:15:01;98722.41;;;-4.20;48.41
65384;BME280;51986;52.788;41.368;2023-03-01T17:17:29;98732.38;;;-4.10;47.99
65384;BME280;51986;52.788;41.368;2023-03-01T17:19:58;98731.97;;;-4.20;48.15
65384;BME280;51986;52.788;41.368;2023-03-01T17:22:25;98703.94;;;-4.22;48.19
65384;BME280;51986;52.788;41.368;2023-03-01T17:24:52;98725.56;;;-4.14;49.07
65384;BME280;51986;52.788;41.368;2023-03-01T17:27:19;98754.13;;;-4.37;49.58
65384;BME280;51986;52.788;41.368;2023-03-01T17:29:47;98746.28;;;-4.66;49.68
65384;BME280;51986;52.788;41.368;2023-03-01T17:32:14;98743.06;;;-4.63;48.94
65384;BME280;51986;52.788;41.368;2023-03-01T17:34:41;98726.59;;;-4.71;49.48
65384;BME280;51986;52.788;41.368;2023-03-01T17:37:08;98745.03;;;-4.77;49.98
65384;BME280;51986;52.788;41.368;2023-03-01T17:39:35;98767.44;;;-4.87;49.25
65384;BME280;51986;52.788;41.368;2023-03-01T17:42:03;98753.50;;;-4.77;49.24
65384;BME280;51986;52.788;41.368;2023-03-01T17:44:32;98740.03;;;-5.00;49.27
65384;BME280;51986;52.788;41.368;2023-03-01T17:46:59;98774.22;;;-4.91;49.13
65384;BME280;51986;52.788;41.368;2023-03-01T17:49:26;98742.59;;;-4.91;49.14
65384;BME280;51986;52.788;41.368;2023-03-01T17:51:53;98770.16;;;-4.92;49.24
65384;BME280;51986;52.788;41.368;2023-03-01T17:54:20;98781.81;;;-4.86;49.18
65384;BME280;51986;52.788;41.368;2023-03-01T17:56:49;98770.47;;;-4.93;49.21
65384;BME280;51986;52.788;41.368;2023-03-01T17:59:16;98780.00;;;-4.85;49.24
65384;BME280;51986;52.788;41.368;2023-03-01T18:01:44;98786.34;;;-4.82;49.11
65384;BME280;51986;52.788;41.368;2023-03-01T18:04:11;98778.75;;;-5.05;49.14
65384;BME280;51986;52.788;41.368;2023-03-01T18:06:39;98765.28;;;-5.02;49.47
65384;BME280;51986;52.788;41.368;2023-03-01T18:09:06;98758.50;;;-4.98;49.30
65384;BME280;51986;52.788;41.368;2023-03-01T18:11:34;98770.91;;;-4.91;48.76
65384;BME280;51986;52.788;41.368;2023-03-01T18:14:02;98771.03;;;-5.05;48.92
65384;BME280;51986;52.788;41.368;2023-03-01T18:16:29;98796.91;;;-5.01;49.33
65384;BME280;51986;52.788;41.368;2023-03-01T18:18:58;98782.56;;;-4.94;48.94
65384;BME280;51986;52.788;41.368;2023-03-01T18:21:27;98769.25;;;-5.04;48.56
65384;BME280;51986;52.788;41.368;2023-03-01T18:23:56;98801.94;;;-4.88;49.26
65384;BME280;51986;52.788;41.368;2023-03-01T18:26:24;98768.19;;;-5.03;49.12
65384;BME280;51986;52.788;41.368;2023-03-01T18:28:51;98783.75;;;-4.91;48.95
65384;BME280;51986;52.788;41.368;2023-03-01T18:31:20;98797.53;;;-5.04;49.59
65384;BME280;51986;52.788;41.368;2023-03-01T18:33:50;98771.78;;;-5.22;49.81
65384;BME280;51986;52.788;41.368;2023-03-01T18:36:28;98777.97;;;-5.23;49.74
65384;BME280;51986;52.788;41.368;2023-03-01T18:38:57;98794.63;;;-5.12;49.76
65384;BME280;51986;52.788;41.368;2023-03-01T18:41:26;98788.88;;;-5.17;49.90
65384;BME280;51986;52.788;41.368;2023-03-01T18:43:55;98783.25;;;-5.19;49.95
65384;BME280;51986;52.788;41.368;2023-03-01T18:46:23;98797.34;;;-5.17;49.72
65384;BME280;51986;52.788;41.368;2023-03-01T18:48:51;98792.81;;;-5.11;49.99
65384;BME280;51986;52.788;41.368;2023-03-01T18:51:21;98797.13;;;-5.38;50.58
65384;BME280;51986;52.788;41.368;2023-03-01T18:53:48;98784.47;;;-5.25;50.18
65384;BME280;51986;52.788;41.368;2023-03-01T18:56:15;98830.94;;;-5.13;49.90
65384;BME280;51986;52.788;41.368;2023-03-01T18:58:43;98807.03;;;-5.05;50.35
65384;BME280;51986;52.788;41.368;2023-03-01T19:01:15;98805.81;;;-5.16;50.47
65384;BME280;51986;52.788;41.368;2023-03-01T19:03:43;98803.25;;;-5.07;50.54
65384;BME280;51986;52.788;41.368;2023-03-01T19:06:10;98802.97;;;-5.06;49.89
65384;BME280;51986;52.788;41.368;2023-03-01T19:08:37;98789.50;;;-5.03;50.02
65384;BME280;51986;52.788;41.368;2023-03-01T19:11:05;98773.63;;;-4.96;50.27
65384;BME280;51986;52.788;41.368;2023-03-01T19:13:34;98810.25;;;-4.91;50.61
65384;BME280;51986;52.788;41.368;2023-03-01T19:16:14;98798.16;;;-4.90;50.28
65384;BME280;51986;52.788;41.368;2023-03-01T19:18:43;98827.22;;;-4.90;50.27
65384;BME280;51986;52.788;41.368;2023-03-01T19:21:12;98803.69;;;-5.14;50.18
65384;BME280;51986;52.788;41.368;2023-03-01T19:23:39;98798.56;;;-5.05;50.45
65384;BME280;51986;52.788;41.368;2023-03-01T19:26:09;98787.09;;;-4.91;50.06
65384;BME280;51986;52.788;41.368;2023-03-01T19:28:37;98782.38;;;-5.06;51.08
65384;BME280;51986;52.788;41.368;2023-03-01T19:31:08;98803.53;;;-5.18;51.22
65384;BME280;51986;52.788;41.368;2023-03-01T19:33:36;98777.53;;;-5.16;51.15
65384;BME280;51986;52.788;41.368;2023-03-01T19:36:03;98799.16;;;-5.17;51.08
65384;BME280;51986;52.788;41.368;2023-03-01T19:38:30;98811.84;;;-5.21;51.75
65384;BME280;51986;52.788;41.368;2023-03-01T19:40:57;98827.88;;;-5.15;51.39
65384;BME280;51986;52.788;41.368;2023-03-01T19:43:24;98792.66;;;-5.06;50.87
65384;BME280;51986;52.788;41.368;2023-03-01T19:45:52;98811.44;;;-5.05;51.46
65384;BME280;51986;52.788;41.368;2023-03-01T19:48:22;98794.38;;;-4.93;51.62
65384;BME280;51986;52.788;41.368;2023-03-01T19:50:51;98813.25;;;-5.06;51.85
65384;BME280;51986;52.788;41.368;2023-03-01T19:53:18;98809.19;;;-4.98;50.98
65384;BME280;51986;52.788;41.368;2023-03-01T19:55:46;98806.78;;;-4.86;50.55